sensor_id;sensor_type;location;lat;lon;timestamp;P1;durP1;ratioP1;P2;durP2;ratioP2
39674;SDS011;27790;50.840;4.386;2022-12-29T00:01:31;1.83;;;1.20;;
39674;SDS011;27790;50.840;4.386;2022-12-29T00:03:57;0.75;;;0.73;;
39674;SDS011;27790;50.840;4.386;2022-12-29T00:06:23;2.55;;;1.05;;
39674;SDS011;27790;50.840;4.386;2022-12-29T00:08:49;2.70;;;1.05;;
39674;SDS011;27790;50.840;4.386;2022-12-29T00:11:15;5.28;;;0.98;;
39674;SDS011;27790;50.840;4.386;2022-12-29T00:13:43;1.55;;;0.90;;
39674;SDS011;27790;50.840;4.386;2022-12-29T00:16:20;4.60;;;0.82;;
39674;SDS011;27790;50.840;4.386;2022-12-29T00:18:46;0.85;;;0.70;;
39674;SDS011;27790;50.840;4.386;2022-12-29T00:21:15;0.88;;;0.60;;
39674;SDS011;27790;50.840;4.386;2022-12-29T00:23:53;2.70;;;0.70;;
39674;SDS011;27790;50.840;4.386;2022-12-29T00:26:29;2.75;;;0.95;;
39674;SDS011;27790;50.840;4.386;2022-12-29T00:29:06;2.13;;;1.40;;
39674;SDS011;27790;50.840;4.386;2022-12-29T00:31:44;0.95;;;0.70;;
39674;SDS011;27790;50.840;4.386;2022-12-29T00:34:30;2.20;;;1.02;;
39674;SDS011;27790;50.840;4.386;2022-12-29T00:37:06;4.32;;;1.20;;
39674;SDS011;27790;50.840;4.386;2022-12-29T00:39:32;1.75;;;0.75;;
39674;SDS011;27790;50.840;4.386;2022-12-29T00:42:08;2.05;;;1.02;;
39674;SDS011;27790;50.840;4.386;2022-12-29T00:44:45;8.02;;;1.40;;
39674;SDS011;27790;50.840;4.386;2022-12-29T00:47:11;1.05;;;0.63;;
39674;SDS011;27790;50.840;4.386;2022-12-29T00:49:36;2.28;;;0.70;;
39674;SDS011;27790;50.840;4.386;2022-12-29T00:52:03;1.60;;;0.50;;
39674;SDS011;27790;50.840;4.386;2022-12-29T00:54:35;1.55;;;0.75;;
39674;SDS011;27790;50.840;4.386;2022-12-29T00:57:02;1.77;;;0.77;;
39674;SDS011;27790;50.840;4.386;2022-12-29T00:59:29;2.10;;;0.70;;
39674;SDS011;27790;50.840;4.386;2022-12-29T01:01:55;1.60;;;0.90;;
39674;SDS011;27790;50.840;4.386;2022-12-29T01:04:22;0.80;;;0.60;;
39674;SDS011;27790;50.840;4.386;2022-12-29T01:06:49;4.07;;;1.33;;
39674;SDS011;27790;50.840;4.386;2022-12-29T01:09:15;3.75;;;0.88;;
39674;SDS011;27790;50.840;4.386;2022-12-29T01:11:52;4.03;;;0.70;;
39674;SDS011;27790;50.840;4.386;2022-12-29T01:14:19;2.88;;;0.75;;
39674;SDS011;27790;50.840;4.386;2022-12-29T01:16:45;2.78;;;0.90;;
39674;SDS011;27790;50.840;4.386;2022-12-29T01:19:11;13.77;;;1.00;;
39674;SDS011;27790;50.840;4.386;2022-12-29T01:21:38;1.08;;;0.63;;
39674;SDS011;27790;50.840;4.386;2022-12-29T01:24:03;1.58;;;0.80;;
39674;SDS011;27790;50.840;4.386;2022-12-29T01:26:29;3.45;;;0.73;;
39674;SDS011;27790;50.840;4.386;2022-12-29T01:28:55;6.75;;;1.15;;
39674;SDS011;27790;50.840;4.386;2022-12-29T01:31:20;1.73;;;0.93;;
39674;SDS011;27790;50.840;4.386;2022-12-29T01:33:46;4.20;;;1.52;;
39674;SDS011;27790;50.840;4.386;2022-12-29T01:36:13;2.05;;;1.15;;
39674;SDS011;27790;50.840;4.386;2022-12-29T01:38:40;2.65;;;1.35;;
39674;SDS011;27790;50.840;4.386;2022-12-29T01:41:07;1.90;;;0.90;;
39674;SDS011;27790;50.840;4.386;2022-12-29T01:46:20;2.05;;;1.25;;
39674;SDS011;27790;50.840;4.386;2022-12-29T01:48:49;1.70;;;0.77;;
39674;SDS011;27790;50.840;4.386;2022-12-29T01:51:18;1.10;;;0.90;;
39674;SDS011;27790;50.840;4.386;2022-12-29T01:53:46;3.00;;;1.42;;
39674;SDS011;27790;50.840;4.386;2022-12-29T01:56:12;0.90;;;0.57;;
39674;SDS011;27790;50.840;4.386;2022-12-29T01:58:44;2.38;;;0.55;;
39674;SDS011;27790;50.840;4.386;2022-12-29T02:01:14;1.38;;;0.70;;
39674;SDS011;27790;50.840;4.386;2022-12-29T02:03:43;1.63;;;0.82;;
39674;SDS011;27790;50.840;4.386;2022-12-29T02:06:11;4.03;;;1.13;;
39674;SDS011;27790;50.840;4.386;2022-12-29T02:08:38;2.08;;;0.70;;
39674;SDS011;27790;50.840;4.386;2022-12-29T02:11:05;2.58;;;0.70;;
39674;SDS011;27790;50.840;4.386;2022-12-29T02:13:32;2.45;;;0.50;;
39674;SDS011;27790;50.840;4.386;2022-12-29T02:16:03;1.80;;;0.40;;
39674;SDS011;27790;50.840;4.386;2022-12-29T02:31:55;2.53;;;0.65;;
39674;SDS011;27790;50.840;4.386;2022-12-29T02:34:36;2.28;;;0.65;;
39674;SDS011;27790;50.840;4.386;2022-12-29T02:42:50;3.20;;;0.88;;
39674;SDS011;27790;50.840;4.386;2022-12-29T02:51:08;1.15;;;0.60;;
39674;SDS011;27790;50.840;4.386;2022-12-29T02:53:44;2.13;;;0.35;;
39674;SDS011;27790;50.840;4.386;2022-12-29T02:56:22;0.82;;;0.50;;
39674;SDS011;27790;50.840;4.386;2022-12-29T02:58:47;4.32;;;0.45;;
39674;SDS011;27790;50.840;4.386;2022-12-29T03:01:21;2.25;;;0.57;;
39674;SDS011;27790;50.840;4.386;2022-12-29T03:12:14;4.88;;;0.70;;
39674;SDS011;27790;50.840;4.386;2022-12-29T03:14:44;1.23;;;0.52;;
39674;SDS011;27790;50.840;4.386;2022-12-29T03:20:04;8.63;;;1.25;;
39674;SDS011;27790;50.840;4.386;2022-12-29T03:22:34;10.95;;;1.35;;
39674;SDS011;27790;50.840;4.386;2022-12-29T03:27:41;2.78;;;0.98;;
39674;SDS011;27790;50.840;4.386;2022-12-29T03:30:09;4.43;;;0.50;;
39674;SDS011;27790;50.840;4.386;2022-12-29T03:33:10;2.55;;;0.55;;
39674;SDS011;27790;50.840;4.386;2022-12-29T03:35:32;1.75;;;0.40;;
39674;SDS011;27790;50.840;4.386;2022-12-29T03:40:59;2.20;;;0.70;;
39674;SDS011;27790;50.840;4.386;2022-12-29T03:43:28;5.47;;;0.68;;
39674;SDS011;27790;50.840;4.386;2022-12-29T03:45:54;9.68;;;0.82;;
39674;SDS011;27790;50.840;4.386;2022-12-29T03:48:20;3.50;;;0.73;;
39674;SDS011;27790;50.840;4.386;2022-12-29T03:50:45;2.22;;;0.50;;
39674;SDS011;27790;50.840;4.386;2022-12-29T03:53:11;4.05;;;0.65;;
39674;SDS011;27790;50.840;4.386;2022-12-29T03:55:37;2.33;;;0.63;;
39674;SDS011;27790;50.840;4.386;2022-12-29T03:58:02;3.92;;;0.77;;
39674;SDS011;27790;50.840;4.386;2022-12-29T04:00:28;3.60;;;0.98;;
39674;SDS011;27790;50.840;4.386;2022-12-29T04:02:54;4.28;;;1.38;;
39674;SDS011;27790;50.840;4.386;2022-12-29T04:05:22;3.63;;;0.95;;
39674;SDS011;27790;50.840;4.386;2022-12-29T04:07:48;5.97;;;0.65;;
39674;SDS011;27790;50.840;4.386;2022-12-29T04:10:14;2.75;;;1.20;;
39674;SDS011;27790;50.840;4.386;2022-12-29T04:12:39;1.40;;;1.15;;
39674;SDS011;27790;50.840;4.386;2022-12-29T04:15:06;5.35;;;0.73;;
39674;SDS011;27790;50.840;4.386;2022-12-29T04:17:33;7.10;;;1.23;;
39674;SDS011;27790;50.840;4.386;2022-12-29T04:19:59;5.45;;;0.98;;
39674;SDS011;27790;50.840;4.386;2022-12-29T04:22:34;2.63;;;1.00;;
39674;SDS011;27790;50.840;4.386;2022-12-29T04:25:00;5.22;;;1.27;;
39674;SDS011;27790;50.840;4.386;2022-12-29T04:27:25;5.10;;;1.20;;
39674;SDS011;27790;50.840;4.386;2022-12-29T04:29:51;3.35;;;0.65;;
39674;SDS011;27790;50.840;4.386;2022-12-29T04:32:16;3.17;;;0.65;;
39674;SDS011;27790;50.840;4.386;2022-12-29T04:34:42;3.30;;;1.63;;
39674;SDS011;27790;50.840;4.386;2022-12-29T04:37:07;4.47;;;1.52;;
39674;SDS011;27790;50.840;4.386;2022-12-29T04:39:33;5.10;;;1.13;;
39674;SDS011;27790;50.840;4.386;2022-12-29T04:41:59;7.57;;;1.27;;
39674;SDS011;27790;50.840;4.386;2022-12-29T04:44:24;2.85;;;1.10;;
39674;SDS011;27790;50.840;4.386;2022-12-29T04:46:50;3.90;;;0.80;;
39674;SDS011;27790;50.840;4.386;2022-12-29T04:49:15;6.30;;;1.30;;
39674;SDS011;27790;50.840;4.386;2022-12-29T04:51:41;2.85;;;0.80;;
39674;SDS011;27790;50.840;4.386;2022-12-29T04:54:07;5.63;;;1.00;;
39674;SDS011;27790;50.840;4.386;2022-12-29T04:56:32;4.93;;;1.00;;
39674;SDS011;27790;50.840;4.386;2022-12-29T04:58:58;6.45;;;1.40;;
39674;SDS011;27790;50.840;4.386;2022-12-29T05:01:23;4.22;;;0.90;;
39674;SDS011;27790;50.840;4.386;2022-12-29T05:03:49;3.53;;;0.90;;
39674;SDS011;27790;50.840;4.386;2022-12-29T05:06:16;5.07;;;1.23;;
39674;SDS011;27790;50.840;4.386;2022-12-29T05:08:41;3.20;;;1.00;;
39674;SDS011;27790;50.840;4.386;2022-12-29T05:11:07;2.72;;;1.50;;
39674;SDS011;27790;50.840;4.386;2022-12-29T05:13:32;2.13;;;1.10;;
39674;SDS011;27790;50.840;4.386;2022-12-29T05:15:58;5.10;;;1.17;;
39674;SDS011;27790;50.840;4.386;2022-12-29T05:18:24;5.13;;;1.27;;
39674;SDS011;27790;50.840;4.386;2022-12-29T05:20:49;4.18;;;0.82;;
39674;SDS011;27790;50.840;4.386;2022-12-29T05:23:15;8.07;;;1.52;;
39674;SDS011;27790;50.840;4.386;2022-12-29T05:25:42;5.80;;;1.73;;
39674;SDS011;27790;50.840;4.386;2022-12-29T05:28:08;10.50;;;2.08;;
39674;SDS011;27790;50.840;4.386;2022-12-29T05:30:33;6.70;;;1.25;;
39674;SDS011;27790;50.840;4.386;2022-12-29T05:32:59;6.03;;;1.70;;
39674;SDS011;27790;50.840;4.386;2022-12-29T05:35:25;5.75;;;1.27;;
39674;SDS011;27790;50.840;4.386;2022-12-29T05:37:50;8.80;;;1.25;;
39674;SDS011;27790;50.840;4.386;2022-12-29T05:40:16;4.88;;;1.58;;
39674;SDS011;27790;50.840;4.386;2022-12-29T05:42:41;4.72;;;0.82;;
39674;SDS011;27790;50.840;4.386;2022-12-29T05:45:07;8.75;;;1.27;;
39674;SDS011;27790;50.840;4.386;2022-12-29T05:47:33;15.07;;;2.45;;
39674;SDS011;27790;50.840;4.386;2022-12-29T05:49:59;5.10;;;1.65;;
39674;SDS011;27790;50.840;4.386;2022-12-29T05:52:25;9.80;;;1.73;;
39674;SDS011;27790;50.840;4.386;2022-12-29T05:54:51;7.82;;;1.85;;
39674;SDS011;27790;50.840;4.386;2022-12-29T05:57:16;6.72;;;1.38;;
39674;SDS011;27790;50.840;4.386;2022-12-29T05:59:42;4.25;;;1.25;;
39674;SDS011;27790;50.840;4.386;2022-12-29T06:02:08;9.55;;;1.48;;
39674;SDS011;27790;50.840;4.386;2022-12-29T06:04:34;6.38;;;2.10;;
39674;SDS011;27790;50.840;4.386;2022-12-29T06:07:00;9.32;;;1.52;;
39674;SDS011;27790;50.840;4.386;2022-12-29T06:09:25;8.25;;;1.30;;
39674;SDS011;27790;50.840;4.386;2022-12-29T06:11:51;5.20;;;1.75;;
39674;SDS011;27790;50.840;4.386;2022-12-29T06:14:17;3.88;;;1.52;;
39674;SDS011;27790;50.840;4.386;2022-12-29T06:16:42;9.75;;;2.15;;
39674;SDS011;27790;50.840;4.386;2022-12-29T06:19:08;6.47;;;1.42;;
39674;SDS011;27790;50.840;4.386;2022-12-29T06:21:33;8.18;;;1.13;;
39674;SDS011;27790;50.840;4.386;2022-12-29T06:23:59;6.10;;;1.40;;
39674;SDS011;27790;50.840;4.386;2022-12-29T06:26:24;9.02;;;2.35;;
39674;SDS011;27790;50.840;4.386;2022-12-29T06:28:50;10.50;;;2.17;;
39674;SDS011;27790;50.840;4.386;2022-12-29T06:31:16;6.30;;;1.92;;
39674;SDS011;27790;50.840;4.386;2022-12-29T06:33:41;6.03;;;1.85;;
39674;SDS011;27790;50.840;4.386;2022-12-29T06:36:07;8.10;;;2.30;;
39674;SDS011;27790;50.840;4.386;2022-12-29T06:38:32;20.40;;;3.90;;
39674;SDS011;27790;50.840;4.386;2022-12-29T06:41:03;5.43;;;1.70;;
39674;SDS011;27790;50.840;4.386;2022-12-29T06:43:28;6.28;;;2.22;;
39674;SDS011;27790;50.840;4.386;2022-12-29T06:45:55;6.82;;;1.42;;
39674;SDS011;27790;50.840;4.386;2022-12-29T06:48:21;10.48;;;2.22;;
39674;SDS011;27790;50.840;4.386;2022-12-29T06:50:47;13.00;;;1.98;;
39674;SDS011;27790;50.840;4.386;2022-12-29T06:53:12;7.05;;;2.13;;
39674;SDS011;27790;50.840;4.386;2022-12-29T06:55:38;9.65;;;2.55;;
39674;SDS011;27790;50.840;4.386;2022-12-29T06:58:04;6.63;;;1.73;;
39674;SDS011;27790;50.840;4.386;2022-12-29T07:00:29;7.85;;;2.25;;
39674;SDS011;27790;50.840;4.386;2022-12-29T07:02:55;14.95;;;1.58;;
39674;SDS011;27790;50.840;4.386;2022-12-29T07:05:23;13.05;;;2.38;;
39674;SDS011;27790;50.840;4.386;2022-12-29T07:07:50;5.13;;;1.23;;
39674;SDS011;27790;50.840;4.386;2022-12-29T07:10:15;6.30;;;1.70;;
39674;SDS011;27790;50.840;4.386;2022-12-29T07:12:41;6.65;;;1.30;;
39674;SDS011;27790;50.840;4.386;2022-12-29T07:15:07;9.60;;;1.50;;
39674;SDS011;27790;50.840;4.386;2022-12-29T07:17:32;11.52;;;2.05;;
39674;SDS011;27790;50.840;4.386;2022-12-29T07:19:58;8.70;;;1.70;;
39674;SDS011;27790;50.840;4.386;2022-12-29T07:22:24;10.43;;;2.42;;
39674;SDS011;27790;50.840;4.386;2022-12-29T07:24:49;10.63;;;2.15;;
39674;SDS011;27790;50.840;4.386;2022-12-29T07:27:15;5.45;;;1.50;;
39674;SDS011;27790;50.840;4.386;2022-12-29T07:29:40;8.55;;;1.83;;
39674;SDS011;27790;50.840;4.386;2022-12-29T07:32:06;5.78;;;1.45;;
39674;SDS011;27790;50.840;4.386;2022-12-29T07:34:32;11.05;;;2.05;;
39674;SDS011;27790;50.840;4.386;2022-12-29T07:36:57;5.85;;;1.35;;
39674;SDS011;27790;50.840;4.386;2022-12-29T07:39:23;13.13;;;2.55;;
39674;SDS011;27790;50.840;4.386;2022-12-29T07:41:48;8.35;;;1.55;;
39674;SDS011;27790;50.840;4.386;2022-12-29T07:44:14;6.68;;;1.38;;
39674;SDS011;27790;50.840;4.386;2022-12-29T07:46:39;8.15;;;2.55;;
39674;SDS011;27790;50.840;4.386;2022-12-29T07:49:05;11.90;;;2.08;;
39674;SDS011;27790;50.840;4.386;2022-12-29T07:51:30;10.55;;;2.30;;
39674;SDS011;27790;50.840;4.386;2022-12-29T07:53:57;6.07;;;1.88;;
39674;SDS011;27790;50.840;4.386;2022-12-29T07:56:25;8.95;;;1.85;;
39674;SDS011;27790;50.840;4.386;2022-12-29T07:58:51;7.88;;;1.60;;
39674;SDS011;27790;50.840;4.386;2022-12-29T08:01:16;7.57;;;1.95;;
39674;SDS011;27790;50.840;4.386;2022-12-29T08:03:42;7.80;;;1.95;;
39674;SDS011;27790;50.840;4.386;2022-12-29T08:06:10;10.43;;;2.63;;
39674;SDS011;27790;50.840;4.386;2022-12-29T08:08:36;7.78;;;1.95;;
39674;SDS011;27790;50.840;4.386;2022-12-29T08:11:03;4.28;;;1.70;;
39674;SDS011;27790;50.840;4.386;2022-12-29T08:13:28;7.90;;;2.45;;
39674;SDS011;27790;50.840;4.386;2022-12-29T08:15:54;11.50;;;2.30;;
39674;SDS011;27790;50.840;4.386;2022-12-29T08:18:20;4.72;;;2.05;;
39674;SDS011;27790;50.840;4.386;2022-12-29T08:20:45;9.95;;;2.25;;
39674;SDS011;27790;50.840;4.386;2022-12-29T08:23:11;13.13;;;2.58;;
39674;SDS011;27790;50.840;4.386;2022-12-29T08:25:36;6.13;;;1.70;;
39674;SDS011;27790;50.840;4.386;2022-12-29T08:28:02;10.90;;;2.83;;
39674;SDS011;27790;50.840;4.386;2022-12-29T08:30:27;9.45;;;2.30;;
39674;SDS011;27790;50.840;4.386;2022-12-29T08:32:53;14.02;;;3.10;;
39674;SDS011;27790;50.840;4.386;2022-12-29T08:35:19;10.23;;;2.65;;
39674;SDS011;27790;50.840;4.386;2022-12-29T08:37:44;9.10;;;1.90;;
39674;SDS011;27790;50.840;4.386;2022-12-29T08:40:10;8.70;;;1.48;;
39674;SDS011;27790;50.840;4.386;2022-12-29T08:45:05;9.18;;;2.40;;
39674;SDS011;27790;50.840;4.386;2022-12-29T08:47:31;5.07;;;1.73;;
39674;SDS011;27790;50.840;4.386;2022-12-29T08:49:57;13.43;;;2.20;;
39674;SDS011;27790;50.840;4.386;2022-12-29T08:52:22;11.52;;;2.17;;
39674;SDS011;27790;50.840;4.386;2022-12-29T08:54:48;11.20;;;2.80;;
39674;SDS011;27790;50.840;4.386;2022-12-29T08:57:14;13.20;;;2.40;;
39674;SDS011;27790;50.840;4.386;2022-12-29T08:59:39;9.05;;;2.72;;
39674;SDS011;27790;50.840;4.386;2022-12-29T09:02:05;10.88;;;2.17;;
39674;SDS011;27790;50.840;4.386;2022-12-29T09:04:31;10.55;;;2.03;;
39674;SDS011;27790;50.840;4.386;2022-12-29T09:06:56;8.98;;;2.50;;
39674;SDS011;27790;50.840;4.386;2022-12-29T09:09:22;8.55;;;2.35;;
39674;SDS011;27790;50.840;4.386;2022-12-29T09:11:47;13.07;;;2.65;;
39674;SDS011;27790;50.840;4.386;2022-12-29T09:14:13;12.60;;;3.25;;
39674;SDS011;27790;50.840;4.386;2022-12-29T09:16:39;10.75;;;2.78;;
39674;SDS011;27790;50.840;4.386;2022-12-29T09:19:16;7.82;;;2.10;;
39674;SDS011;27790;50.840;4.386;2022-12-29T09:21:42;14.68;;;3.15;;
39674;SDS011;27790;50.840;4.386;2022-12-29T09:24:07;17.35;;;2.67;;
39674;SDS011;27790;50.840;4.386;2022-12-29T09:26:33;10.48;;;2.35;;
39674;SDS011;27790;50.840;4.386;2022-12-29T09:28:58;15.98;;;2.88;;
39674;SDS011;27790;50.840;4.386;2022-12-29T09:31:24;7.88;;;2.03;;
39674;SDS011;27790;50.840;4.386;2022-12-29T09:33:50;11.35;;;1.98;;
39674;SDS011;27790;50.840;4.386;2022-12-29T09:36:15;10.90;;;2.47;;
39674;SDS011;27790;50.840;4.386;2022-12-29T09:38:41;16.63;;;3.30;;
39674;SDS011;27790;50.840;4.386;2022-12-29T09:41:11;11.20;;;2.80;;
39674;SDS011;27790;50.840;4.386;2022-12-29T09:46:28;15.70;;;3.85;;
39674;SDS011;27790;50.840;4.386;2022-12-29T09:51:38;12.82;;;2.90;;
39674;SDS011;27790;50.840;4.386;2022-12-29T09:54:19;10.38;;;2.85;;
39674;SDS011;27790;50.840;4.386;2022-12-29T09:56:56;14.13;;;3.70;;
39674;SDS011;27790;50.840;4.386;2022-12-29T09:59:27;9.80;;;2.17;;
39674;SDS011;27790;50.840;4.386;2022-12-29T10:02:12;6.57;;;3.08;;
39674;SDS011;27790;50.840;4.386;2022-12-29T10:04:41;7.97;;;2.13;;
39674;SDS011;27790;50.840;4.386;2022-12-29T10:07:14;9.10;;;2.22;;
39674;SDS011;27790;50.840;4.386;2022-12-29T10:12:46;18.08;;;3.42;;
39674;SDS011;27790;50.840;4.386;2022-12-29T10:18:20;14.60;;;2.53;;
